Time;durP1;ratioP1;P1;durP2;ratioP2;P2;SDS_P1;SDS_P2;PMS_P1;PMS_P2;Temp;Humidity;BMP_temperature;BMP_pressure;BME280_temperature;BME280_humidity;BME280_pressure;Samples;Min_cycle;Max_cycle;Signal;HPM_P1;HPM_P2
2022/11/22 00:01:30;;;;;;;;;;;0.90;91.60;;;;;;4993632;28;19914;-43
2022/11/22 00:03:57;;;;;;;;;;;0.90;91.70;;;;;;5004967;28;20263;-42
2022/11/22 00:06:24;;;;;;;;;;;0.90;91.70;;;;;;5014104;28;20653;-43
2022/11/22 00:08:51;;;;;;;;;;;1.00;91.90;;;;;;5012525;28;20561;-42
2022/11/22 00:11:16;;;;;;;;;;;1.00;91.90;;;;;;5008945;28;19914;-42
2022/11/22 00:13:43;;;;;;;;;;;1.00;92.00;;;;;;5001892;28;19909;-43
2022/11/22 00:16:10;;;;;;;;;;;1.00;92.10;;;;;;5012450;28;19909;-42
2022/11/22 00:18:37;;;;;;;;;;;1.10;92.10;;;;;;5011741;28;20377;-42
2022/11/22 00:21:07;;;;;;;;;;;1.10;92.20;;;;;;5014252;28;19905;-43
2022/11/22 00:23:34;;;;;;;;;;;1.20;92.20;;;;;;4999551;28;19936;-42
2022/11/22 00:26:00;;;;;;;;;;;1.20;92.30;;;;;;4993029;28;19916;-44
2022/11/22 00:28:26;;;;;;;;;;;1.20;92.30;;;;;;4997324;28;19917;-42
2022/11/22 00:30:53;;;;;;;;;;;1.20;92.30;;;;;;5001877;28;19910;-42
2022/11/22 00:33:20;;;;;;;;;;;1.20;92.30;;;;;;4995142;28;20238;-43
2022/11/22 00:35:47;;;;;;;;;;;1.20;92.20;;;;;;5013977;28;19909;-43
2022/11/22 00:38:14;;;;;;;;;;;1.20;92.30;;;;;;4994918;28;19909;-42
2022/11/22 00:40:41;;;;;;;;;;;1.30;92.30;;;;;;4994284;28;19905;-42
2022/11/22 00:43:08;;;;;;;;;;;1.30;92.30;;;;;;5011535;28;19920;-43
2022/11/22 00:45:35;;;;;;;;;;;1.30;92.20;;;;;;5013909;28;19917;-42
2022/11/22 00:48:01;;;;;;;;;;;1.30;92.20;;;;;;4994388;28;19920;-42
2022/11/22 00:50:28;;;;;;;;;;;1.30;92.20;;;;;;5009387;28;19917;-43
2022/11/22 00:52:54;;;;;;;;;;;1.30;92.10;;;;;;5007062;28;19917;-42
2022/11/22 00:55:20;;;;;;;;;;;1.40;92.00;;;;;;5009568;28;19910;-42
2022/11/22 00:57:46;;;;;;;;;;;1.40;91.90;;;;;;5006899;28;20008;-42
2022/11/22 01:00:13;;;;;;;;;;;1.40;91.90;;;;;;5011439;28;19959;-43
2022/11/22 01:02:40;;;;;;;;;;;1.40;91.80;;;;;;4994133;28;20347;-42
2022/11/22 01:05:10;;;;;;;;;;;1.40;91.80;;;;;;5006087;28;19917;-42
2022/11/22 01:07:37;;;;;;;;;;;1.40;91.60;;;;;;5013521;28;20360;-42
2022/11/22 01:10:03;;;;;;;;;;;1.40;91.40;;;;;;5008599;28;20050;-42
2022/11/22 01:12:30;;;;;;;;;;;1.40;91.20;;;;;;5008418;28;20392;-43
2022/11/22 01:14:57;;;;;;;;;;;1.40;91.00;;;;;;5013578;28;19909;-42
2022/11/22 01:17:24;;;;;;;;;;;1.40;91.00;;;;;;5008811;28;19913;-42
2022/11/22 01:19:51;;;;;;;;;;;1.40;91.00;;;;;;5000817;28;19910;-42
2022/11/22 01:22:17;;;;;;;;;;;1.40;91.00;;;;;;4999505;28;19910;-43
2022/11/22 01:24:43;;;;;;;;;;;1.40;91.10;;;;;;4993909;28;19910;-42
2022/11/22 01:27:09;;;;;;;;;;;1.40;91.00;;;;;;5002704;28;19909;-42
2022/11/22 01:29:36;;;;;;;;;;;1.40;90.80;;;;;;4993957;28;20004;-44
2022/11/22 01:32:03;;;;;;;;;;;1.30;90.70;;;;;;4993794;28;19916;-42
2022/11/22 01:34:29;;;;;;;;;;;1.30;90.50;;;;;;4996020;28;19909;-43
2022/11/22 01:36:56;;;;;;;;;;;1.30;90.40;;;;;;5027163;28;19940;-42
2022/11/22 01:39:22;;;;;;;;;;;1.40;90.30;;;;;;5015704;28;19910;-42
2022/11/22 01:41:50;;;;;;;;;;;1.30;90.20;;;;;;5009145;28;19921;-42
2022/11/22 01:44:18;;;;;;;;;;;1.30;90.20;;;;;;4997381;28;19912;-43
2022/11/22 01:46:48;;;;;;;;;;;1.30;90.20;;;;;;5012572;28;20013;-42
2022/11/22 01:49:36;;;;;;;;;;;1.30;90.20;;;;;;4997158;28;20292;-42
2022/11/22 01:52:04;;;;;;;;;;;1.30;90.30;;;;;;5015811;28;20339;-42
2022/11/22 01:54:32;;;;;;;;;;;1.30;90.20;;;;;;5015802;28;20313;-42
2022/11/22 01:57:02;;;;;;;;;;;1.30;90.10;;;;;;5016574;28;19913;-43
2022/11/22 01:59:31;;;;;;;;;;;1.30;90.20;;;;;;5008011;28;19910;-42
2022/11/22 02:01:58;;;;;;;;;;;1.40;90.20;;;;;;4998853;28;19913;-42
2022/11/22 02:04:25;;;;;;;;;;;1.40;90.30;;;;;;5016493;28;19928;-43
2022/11/22 02:07:10;;;;;;;;;;;1.40;90.30;;;;;;4999401;28;20240;-44
2022/11/22 02:09:36;;;;;;;;;;;1.40;90.40;;;;;;4996421;28;19925;-43
2022/11/22 02:12:04;;;;;;;;;;;1.40;90.40;;;;;;4996192;28;19913;-43
2022/11/22 02:14:30;;;;;;;;;;;1.40;90.40;;;;;;4996628;28;20215;-42
2022/11/22 02:16:56;;;;;;;;;;;1.40;90.60;;;;;;5008516;28;19910;-45
2022/11/22 02:19:40;;;;;;;;;;;1.40;90.50;;;;;;5002159;28;19910;-42
2022/11/22 02:22:24;;;;;;;;;;;1.50;90.50;;;;;;4998715;28;19920;-43
2022/11/22 02:24:56;;;;;;;;;;;1.50;90.50;;;;;;4996442;28;19944;-42
2022/11/22 02:27:23;;;;;;;;;;;1.40;90.50;;;;;;4995652;28;20675;-43
2022/11/22 02:29:49;;;;;;;;;;;1.50;90.40;;;;;;4996503;28;19920;-42
2022/11/22 02:32:19;;;;;;;;;;;1.50;90.40;;;;;;4997820;28;20340;-45
2022/11/22 02:34:49;;;;;;;;;;;1.50;90.20;;;;;;5014323;28;19909;-42
2022/11/22 02:37:21;;;;;;;;;;;1.50;90.20;;;;;;5001041;28;20347;-42
2022/11/22 02:39:51;;;;;;;;;;;1.40;90.20;;;;;;4996310;28;19913;-43
2022/11/22 02:42:18;;;;;;;;;;;1.40;90.20;;;;;;4996068;28;19944;-42
2022/11/22 02:44:44;;;;;;;;;;;1.40;90.20;;;;;;4998254;28;19956;-43
2022/11/22 02:47:11;;;;;;;;;;;1.40;90.30;;;;;;5012018;28;19913;-44
2022/11/22 02:49:36;;;;;;;;;;;1.30;90.40;;;;;;4995784;28;20311;-43
2022/11/22 02:52:02;;;;;;;;;;;1.20;90.20;;;;;;5011699;28;19924;-42
2022/11/22 02:54:29;;;;;;;;;;;1.30;90.40;;;;;;4995139;28;19912;-42
2022/11/22 02:56:55;;;;;;;;;;;1.20;90.40;;;;;;4996604;28;20339;-43
2022/11/22 02:59:22;;;;;;;;;;;1.20;90.40;;;;;;5015498;28;19949;-42
2022/11/22 03:01:49;;;;;;;;;;;1.20;90.50;;;;;;5013179;28;19948;-43
2022/11/22 03:04:23;;;;;;;;;;;1.20;90.40;;;;;;5013506;28;19988;-42
2022/11/22 03:06:51;;;;;;;;;;;1.20;90.60;;;;;;5004246;28;19917;-42
2022/11/22 03:09:17;;;;;;;;;;;1.20;90.50;;;;;;4995362;28;20343;-42
2022/11/22 03:11:46;;;;;;;;;;;1.20;90.60;;;;;;4995863;28;19949;-42
2022/11/22 03:14:14;;;;;;;;;;;1.20;90.60;;;;;;5006469;28;19905;-43
2022/11/22 03:16:41;;;;;;;;;;;1.20;90.70;;;;;;4995773;28;19952;-44
2022/11/22 03:19:08;;;;;;;;;;;1.30;90.70;;;;;;5002885;28;19972;-42
2022/11/22 03:21:36;;;;;;;;;;;1.30;90.60;;;;;;5013947;28;19913;-43
2022/11/22 03:24:03;;;;;;;;;;;1.30;90.60;;;;;;5011880;28;20299;-44
2022/11/22 03:26:29;;;;;;;;;;;1.20;90.60;;;;;;4994174;28;19913;-42
2022/11/22 03:28:59;;;;;;;;;;;1.30;90.70;;;;;;5002371;28;20465;-44
2022/11/22 03:31:26;;;;;;;;;;;1.30;90.70;;;;;;5014823;28;20346;-42
2022/11/22 03:33:53;;;;;;;;;;;1.40;90.80;;;;;;5006935;28;20336;-43
2022/11/22 03:36:20;;;;;;;;;;;1.30;90.70;;;;;;5015076;28;20278;-42
2022/11/22 03:38:47;;;;;;;;;;;1.30;90.80;;;;;;5014354;28;19916;-42
2022/11/22 03:41:14;;;;;;;;;;;1.30;90.80;;;;;;5014288;28;20373;-42
2022/11/22 03:43:41;;;;;;;;;;;1.40;90.80;;;;;;5013459;28;20572;-43
2022/11/22 03:46:19;;;;;;;;;;;1.40;90.70;;;;;;5007085;28;19922;-42
2022/11/22 03:48:46;;;;;;;;;;;1.40;90.70;;;;;;5013843;28;19917;-42
2022/11/22 03:51:13;;;;;;;;;;;1.40;90.80;;;;;;5014101;28;19936;-42
2022/11/22 03:53:39;;;;;;;;;;;1.40;90.90;;;;;;5013601;28;19909;-42
2022/11/22 03:56:05;;;;;;;;;;;1.40;90.90;;;;;;4999742;28;19905;-43
2022/11/22 03:58:35;;;;;;;;;;;1.40;90.80;;;;;;4994060;28;20001;-42
2022/11/22 04:01:00;;;;;;;;;;;1.50;90.90;;;;;;4999052;28;19944;-43
2022/11/22 04:03:27;;;;;;;;;;;1.40;90.80;;;;;;5013484;28;19917;-42
2022/11/22 04:05:54;;;;;;;;;;;1.40;91.00;;;;;;4995643;28;20240;-41
2022/11/22 04:08:19;;;;;;;;;;;1.50;91.20;;;;;;4994342;28;19944;-43
2022/11/22 04:10:49;;;;;;;;;;;1.50;91.20;;;;;;4994733;28;20320;-41
2022/11/22 04:13:17;;;;;;;;;;;1.50;91.40;;;;;;4994568;28;20388;-42
2022/11/22 04:15:43;;;;;;;;;;;1.50;91.40;;;;;;5001192;28;20003;-44
2022/11/22 04:18:09;;;;;;;;;;;1.50;91.60;;;;;;4995518;28;19918;-44
2022/11/22 04:23:22;;;;;;;;;;;1.50;91.70;;;;;;5007005;28;19983;-46
2022/11/22 04:25:50;;;;;;;;;;;1.50;91.90;;;;;;4994520;28;19909;-48
2022/11/22 04:28:21;;;;;;;;;;;1.50;92.00;;;;;;4994620;28;19924;-52
2022/11/22 04:33:34;;;;;;;;;;;1.60;92.30;;;;;;5008414;28;19921;-51
2022/11/22 04:36:01;;;;;;;;;;;1.60;92.30;;;;;;5014043;28;19913;-54
2022/11/22 04:38:30;;;;;;;;;;;1.50;92.40;;;;;;5014043;28;19913;-49
2022/11/22 04:40:57;;;;;;;;;;;1.50;92.50;;;;;;5013883;28;19905;-50
2022/11/22 04:46:14;;;;;;;;;;;1.50;92.60;;;;;;5010004;28;20105;-52
2022/11/22 04:48:41;;;;;;;;;;;1.60;92.80;;;;;;4996673;28;19929;-49
2022/11/22 04:53:54;;;;;;;;;;;1.60;92.80;;;;;;5009087;28;19924;-50
2022/11/22 04:56:20;;;;;;;;;;;1.60;92.80;;;;;;5012240;28;19932;-49
2022/11/22 04:58:50;;;;;;;;;;;1.60;92.80;;;;;;5013928;28;19905;-49
2022/11/22 05:01:17;;;;;;;;;;;1.60;92.90;;;;;;5003797;28;19909;-49
2022/11/22 05:03:44;;;;;;;;;;;1.60;92.90;;;;;;4994287;28;19948;-49
2022/11/22 05:06:11;;;;;;;;;;;1.60;92.90;;;;;;5009585;28;19913;-49
2022/11/22 05:08:38;;;;;;;;;;;1.60;93.00;;;;;;5010114;28;19931;-48
2022/11/22 05:11:05;;;;;;;;;;;1.70;93.00;;;;;;5012593;28;19905;-50
2022/11/22 05:13:34;;;;;;;;;;;1.70;93.00;;;;;;5000356;28;19948;-50
2022/11/22 05:16:02;;;;;;;;;;;1.70;93.10;;;;;;4997902;28;19910;-55
2022/11/22 05:18:29;;;;;;;;;;;1.70;93.10;;;;;;4997759;28;19956;-52
2022/11/22 05:20:55;;;;;;;;;;;1.80;93.10;;;;;;5013450;28;20389;-53
2022/11/22 05:26:08;;;;;;;;;;;1.80;93.20;;;;;;4997979;28;19964;-57
2022/11/22 05:28:37;;;;;;;;;;;1.80;93.20;;;;;;4996304;28;19910;-58
2022/11/22 05:31:09;;;;;;;;;;;1.80;93.10;;;;;;4997334;28;19972;-57
2022/11/22 05:33:37;;;;;;;;;;;1.80;93.20;;;;;;5012553;28;19918;-57
2022/11/22 05:36:04;;;;;;;;;;;1.80;93.20;;;;;;5011580;28;20016;-55
2022/11/22 05:38:30;;;;;;;;;;;1.80;93.30;;;;;;5016167;28;19956;-58
2022/11/22 05:40:57;;;;;;;;;;;1.80;93.30;;;;;;5011740;28;19918;-58
2022/11/22 05:43:22;;;;;;;;;;;1.90;93.30;;;;;;4997300;28;19917;-56
2022/11/22 05:45:49;;;;;;;;;;;1.80;93.30;;;;;;4997266;28;19910;-56
2022/11/22 05:48:18;;;;;;;;;;;1.90;93.40;;;;;;4997158;28;19914;-59
2022/11/22 05:50:45;;;;;;;;;;;1.80;93.30;;;;;;5008014;28;19910;-55
2022/11/22 05:53:12;;;;;;;;;;;1.80;93.30;;;;;;5001561;28;19910;-53
2022/11/22 05:55:40;;;;;;;;;;;1.80;93.40;;;;;;4997555;28;19952;-50
2022/11/22 05:58:05;;;;;;;;;;;1.80;93.50;;;;;;4997173;28;19905;-55
2022/11/22 06:00:32;;;;;;;;;;;1.90;93.50;;;;;;4997015;28;19936;-53
2022/11/22 06:03:02;;;;;;;;;;;1.90;93.40;;;;;;5014688;28;19914;-53
2022/11/22 06:05:29;;;;;;;;;;;1.90;93.40;;;;;;5013357;28;19995;-52
2022/11/22 06:07:58;;;;;;;;;;;1.90;93.50;;;;;;5016091;28;19914;-54
2022/11/22 06:10:28;;;;;;;;;;;1.90;93.50;;;;;;5016779;28;19909;-53
2022/11/22 06:12:55;;;;;;;;;;;1.90;93.50;;;;;;5007302;28;19910;-53
2022/11/22 06:15:21;;;;;;;;;;;1.90;93.60;;;;;;4996741;28;19905;-52
2022/11/22 06:17:48;;;;;;;;;;;1.90;93.50;;;;;;5016275;28;19913;-55
2022/11/22 06:20:15;;;;;;;;;;;1.90;93.50;;;;;;5015275;28;19910;-50
2022/11/22 06:22:45;;;;;;;;;;;1.90;93.50;;;;;;4996953;28;19963;-51
2022/11/22 06:25:12;;;;;;;;;;;1.90;93.60;;;;;;4996088;28;19920;-51
2022/11/22 06:27:38;;;;;;;;;;;1.90;93.60;;;;;;5000244;28;19913;-50
2022/11/22 06:30:05;;;;;;;;;;;1.90;93.70;;;;;;5002470;28;19956;-48
2022/11/22 06:32:34;;;;;;;;;;;1.90;93.70;;;;;;4996023;28;20248;-49
2022/11/22 06:35:02;;;;;;;;;;;1.90;93.70;;;;;;4996557;28;19910;-48
2022/11/22 06:37:28;;;;;;;;;;;1.90;93.60;;;;;;5006348;28;20064;-47
2022/11/22 06:39:57;;;;;;;;;;;2.00;93.60;;;;;;5008898;28;20004;-47
2022/11/22 06:42:24;;;;;;;;;;;1.90;93.70;;;;;;4996237;28;19912;-48
2022/11/22 06:44:50;;;;;;;;;;;2.00;93.60;;;;;;4995962;28;19913;-47
2022/11/22 06:47:17;;;;;;;;;;;2.00;93.60;;;;;;5011645;28;20283;-48
2022/11/22 06:49:44;;;;;;;;;;;2.00;93.60;;;;;;4996548;28;19996;-47
2022/11/22 06:52:11;;;;;;;;;;;2.00;93.60;;;;;;5014129;28;19916;-46
2022/11/22 06:54:37;;;;;;;;;;;2.00;93.60;;;;;;4999580;28;19917;-47
2022/11/22 06:57:04;;;;;;;;;;;2.00;93.70;;;;;;4995247;28;20300;-47
2022/11/22 06:59:33;;;;;;;;;;;2.00;93.70;;;;;;4995003;28;19917;-50
2022/11/22 07:02:00;;;;;;;;;;;2.00;93.70;;;;;;4995747;28;19971;-48
2022/11/22 07:04:26;;;;;;;;;;;2.10;93.70;;;;;;5001668;28;19913;-49
2022/11/22 07:06:52;;;;;;;;;;;2.10;93.70;;;;;;5013873;28;19924;-49
2022/11/22 07:09:19;;;;;;;;;;;2.10;93.70;;;;;;5000758;28;19917;-48
2022/11/22 07:11:49;;;;;;;;;;;2.10;93.70;;;;;;4995714;28;19947;-47
2022/11/22 07:14:16;;;;;;;;;;;2.20;93.80;;;;;;4995817;28;19924;-47
2022/11/22 07:16:43;;;;;;;;;;;2.20;93.80;;;;;;4995759;28;19913;-48
2022/11/22 07:19:08;;;;;;;;;;;2.20;93.80;;;;;;5009038;28;19913;-47
2022/11/22 07:21:37;;;;;;;;;;;2.20;93.80;;;;;;5015114;28;19910;-46
2022/11/22 07:24:03;;;;;;;;;;;2.20;93.80;;;;;;5011904;28;20293;-47
2022/11/22 07:26:31;;;;;;;;;;;2.20;93.90;;;;;;5014931;28;20004;-47
2022/11/22 07:28:58;;;;;;;;;;;2.20;93.90;;;;;;5013939;28;19917;-50
2022/11/22 07:31:25;;;;;;;;;;;2.20;93.90;;;;;;5009714;28;19913;-47
2022/11/22 07:33:51;;;;;;;;;;;2.20;93.90;;;;;;5012273;28;19913;-47
2022/11/22 07:36:22;;;;;;;;;;;2.30;93.90;;;;;;5012840;28;19924;-46
2022/11/22 07:38:49;;;;;;;;;;;2.20;93.80;;;;;;5014936;28;19927;-48
2022/11/22 07:41:17;;;;;;;;;;;2.30;93.90;;;;;;5001664;28;19924;-48
2022/11/22 07:43:44;;;;;;;;;;;2.30;93.80;;;;;;5010713;28;20263;-46
2022/11/22 07:46:22;;;;;;;;;;;2.30;93.80;;;;;;5008695;28;20373;-46
2022/11/22 07:48:49;;;;;;;;;;;2.30;93.90;;;;;;5012712;28;19919;-47
2022/11/22 07:51:16;;;;;;;;;;;2.40;93.90;;;;;;4997195;28;19956;-46
2022/11/22 07:53:43;;;;;;;;;;;2.40;93.90;;;;;;4998727;28;20008;-47
2022/11/22 07:56:08;;;;;;;;;;;2.40;93.90;;;;;;5006094;28;19909;-45
2022/11/22 07:58:36;;;;;;;;;;;2.40;93.90;;;;;;5014064;28;19905;-46
2022/11/22 08:01:09;;;;;;;;;;;2.40;93.90;;;;;;5006888;28;20338;-46
2022/11/22 08:03:37;;;;;;;;;;;2.40;93.80;;;;;;5005251;28;19948;-45
2022/11/22 08:06:05;;;;;;;;;;;2.40;93.90;;;;;;5014559;28;19936;-46
2022/11/22 08:08:32;;;;;;;;;;;2.40;93.90;;;;;;5010981;28;19961;-45
2022/11/22 08:10:59;;;;;;;;;;;2.50;93.90;;;;;;5014134;28;19905;-46
2022/11/22 08:13:28;;;;;;;;;;;2.50;93.80;;;;;;5004536;28;20496;-45
2022/11/22 08:15:59;;;;;;;;;;;2.50;93.90;;;;;;5011684;28;19909;-45
2022/11/22 08:18:26;;;;;;;;;;;2.50;93.80;;;;;;5011925;28;19909;-46
2022/11/22 08:21:00;;;;;;;;;;;2.50;93.90;;;;;;5000716;28;19914;-45
2022/11/22 08:23:27;;;;;;;;;;;2.60;93.90;;;;;;4994916;28;19910;-45
2022/11/22 08:25:57;;;;;;;;;;;2.60;93.90;;;;;;5009397;28;20014;-46
2022/11/22 08:28:24;;;;;;;;;;;2.70;93.90;;;;;;5001740;28;19971;-47
2022/11/22 08:30:50;;;;;;;;;;;2.70;93.90;;;;;;5013106;28;19934;-46
2022/11/22 08:33:17;;;;;;;;;;;2.70;93.90;;;;;;5013286;28;19975;-45
2022/11/22 08:35:47;;;;;;;;;;;2.80;93.90;;;;;;5009323;28;20338;-45
2022/11/22 08:38:14;;;;;;;;;;;2.80;93.90;;;;;;4994239;28;20274;-45
2022/11/22 08:40:41;;;;;;;;;;;2.80;93.90;;;;;;5013318;28;19909;-45
2022/11/22 08:43:09;;;;;;;;;;;2.90;93.90;;;;;;5008821;28;20319;-45
2022/11/22 08:45:38;;;;;;;;;;;2.90;93.90;;;;;;4994341;28;19909;-44
2022/11/22 08:48:07;;;;;;;;;;;2.90;93.90;;;;;;4994520;28;19910;-45
2022/11/22 08:50:34;;;;;;;;;;;2.90;94.00;;;;;;5013292;28;19996;-45
2022/11/22 08:53:00;;;;;;;;;;;2.90;94.00;;;;;;5012755;28;19944;-45
2022/11/22 08:55:27;;;;;;;;;;;3.00;94.00;;;;;;5013084;28;19914;-45
2022/11/22 08:57:57;;;;;;;;;;;3.00;93.90;;;;;;5011094;28;19909;-45
2022/11/22 09:00:27;;;;;;;;;;;3.00;94.00;;;;;;5012217;28;19996;-47
2022/11/22 09:02:57;;;;;;;;;;;3.00;94.00;;;;;;5012182;28;20507;-45
2022/11/22 09:05:24;;;;;;;;;;;3.10;94.00;;;;;;4994261;28;19909;-45
2022/11/22 09:07:51;;;;;;;;;;;3.10;94.00;;;;;;4993839;28;19913;-49
2022/11/22 09:10:18;;;;;;;;;;;3.20;93.90;;;;;;4993236;28;19922;-46
2022/11/22 09:12:45;;;;;;;;;;;3.20;93.90;;;;;;4993056;28;19921;-45
2022/11/22 09:15:15;;;;;;;;;;;3.20;94.00;;;;;;4993030;28;19968;-45
2022/11/22 09:17:42;;;;;;;;;;;3.30;93.90;;;;;;5013566;28;20200;-45
2022/11/22 09:20:09;;;;;;;;;;;3.30;93.90;;;;;;5007144;28;20299;-45
2022/11/22 09:22:35;;;;;;;;;;;3.30;93.90;;;;;;4998994;28;19909;-44
2022/11/22 09:25:01;;;;;;;;;;;3.40;93.80;;;;;;5012913;28;19967;-45
2022/11/22 09:27:28;;;;;;;;;;;3.40;93.80;;;;;;5006569;28;19917;-44
2022/11/22 09:29:55;;;;;;;;;;;3.40;93.70;;;;;;4994002;28;19921;-44
2022/11/22 09:32:23;;;;;;;;;;;3.30;93.70;;;;;;5001826;28;19909;-48
2022/11/22 09:34:50;;;;;;;;;;;3.40;93.70;;;;;;5011586;28;20243;-43
2022/11/22 09:37:18;;;;;;;;;;;3.40;93.70;;;;;;5012852;28;19924;-43
2022/11/22 09:39:45;;;;;;;;;;;3.40;93.70;;;;;;4999010;28;19917;-45
2022/11/22 09:42:23;;;;;;;;;;;3.40;93.70;;;;;;5009220;28;19906;-48
2022/11/22 09:44:51;;;;;;;;;;;3.40;93.70;;;;;;4993420;28;19920;-44
2022/11/22 09:47:25;;;;;;;;;;;3.40;93.70;;;;;;5007535;28;19921;-44
2022/11/22 09:50:00;;;;;;;;;;;3.40;93.70;;;;;;5011144;28;19916;-44
2022/11/22 09:52:32;;;;;;;;;;;3.40;93.70;;;;;;5008308;28;19945;-44
2022/11/22 09:55:03;;;;;;;;;;;3.40;93.70;;;;;;4993575;28;19976;-43
2022/11/22 09:57:31;;;;;;;;;;;3.50;93.70;;;;;;4993710;28;19913;-43
2022/11/22 10:00:01;;;;;;;;;;;3.50;93.70;;;;;;5002703;28;19921;-43
2022/11/22 10:02:34;;;;;;;;;;;3.50;93.70;;;;;;5016373;28;19918;-44
2022/11/22 10:05:02;;;;;;;;;;;3.60;93.70;;;;;;5009942;28;19918;-44
2022/11/22 10:07:46;;;;;;;;;;;3.60;93.80;;;;;;4996985;28;20374;-44
2022/11/22 10:10:23;;;;;;;;;;;3.70;93.70;;;;;;5011952;28;20347;-44
2022/11/22 10:12:54;;;;;;;;;;;3.70;93.70;;;;;;4996765;28;20350;-44
2022/11/22 10:15:38;;;;;;;;;;;3.80;93.70;;;;;;5006730;28;20547;-44
2022/11/22 10:18:17;;;;;;;;;;;3.90;93.70;;;;;;5016217;28;20323;-46
2022/11/22 10:20:43;;;;;;;;;;;4.00;93.60;;;;;;5014693;28;19922;-43
2022/11/22 10:23:15;;;;;;;;;;;4.00;93.50;;;;;;5009488;28;20279;-43
2022/11/22 10:25:46;;;;;;;;;;;4.10;93.50;;;;;;4996504;28;19918;-44
2022/11/22 10:28:24;;;;;;;;;;;4.10;93.40;;;;;;5003730;28;19913;-44
2022/11/22 10:31:10;;;;;;;;;;;4.20;93.40;;;;;;4995922;28;19945;-45
2022/11/22 10:33:59;;;;;;;;;;;4.20;93.30;;;;;;4996169;28;19920;-43
2022/11/22 10:36:52;;;;;;;;;;;4.20;93.20;;;;;;5008832;28;20216;-43
2022/11/22 10:39:36;;;;;;;;;;;4.30;93.20;;;;;;4995824;28;19906;-43
2022/11/22 10:42:20;;;;;;;;;;;4.40;93.30;;;;;;5003129;28;19917;-43
2022/11/22 10:45:06;;;;;;;;;;;4.50;93.10;;;;;;5015357;28;19906;-44
2022/11/22 10:47:35;;;;;;;;;;;4.50;93.10;;;;;;5010685;28;19971;-44
2022/11/22 10:50:16;;;;;;;;;;;4.50;93.00;;;;;;5005115;28;19968;-42
2022/11/22 10:52:52;;;;;;;;;;;4.60;93.00;;;;;;5015514;28;20265;-43
2022/11/22 10:55:36;;;;;;;;;;;4.60;92.90;;;;;;4999836;28;19920;-44
2022/11/22 10:58:15;;;;;;;;;;;4.60;92.80;;;;;;5012255;28;20243;-43
2022/11/22 11:00:47;;;;;;;;;;;4.70;92.70;;;;;;5013946;28;20453;-43
2022/11/22 11:03:19;;;;;;;;;;;4.70;92.70;;;;;;5015510;28;20220;-43
2022/11/22 11:06:02;;;;;;;;;;;4.70;92.60;;;;;;5013780;28;19909;-43
2022/11/22 11:08:47;;;;;;;;;;;4.70;92.60;;;;;;5010341;28;19968;-43
2022/11/22 11:11:14;;;;;;;;;;;4.70;92.60;;;;;;5007161;28;19919;-44
2022/11/22 11:13:45;;;;;;;;;;;4.80;92.60;;;;;;5015499;28;20000;-43
2022/11/22 11:16:16;;;;;;;;;;;4.80;92.60;;;;;;5011793;28;20239;-42
2022/11/22 11:18:54;;;;;;;;;;;4.80;92.50;;;;;;4995688;28;19917;-42
2022/11/22 11:21:20;;;;;;;;;;;4.90;92.40;;;;;;5014872;28;19920;-45
2022/11/22 11:23:49;;;;;;;;;;;4.90;92.40;;;;;;5015304;28;19909;-43
2022/11/22 11:26:18;;;;;;;;;;;4.90;92.50;;;;;;5003856;28;19910;-42
2022/11/22 11:28:45;;;;;;;;;;;4.90;92.50;;;;;;4995416;28;20255;-42
2022/11/22 11:31:12;;;;;;;;;;;4.80;92.40;;;;;;4995127;28;19945;-43
2022/11/22 11:33:40;;;;;;;;;;;4.80;92.50;;;;;;5009177;28;19928;-42
2022/11/22 11:36:24;;;;;;;;;;;4.90;92.60;;;;;;5010512;28;19951;-42
2022/11/22 11:38:55;;;;;;;;;;;4.80;92.70;;;;;;5012520;28;19918;-42
2022/11/22 11:41:24;;;;;;;;;;;4.90;92.70;;;;;;4996136;28;19920;-42
2022/11/22 11:43:52;;;;;;;;;;;4.90;92.60;;;;;;5009852;28;19909;-43
2022/11/22 11:46:24;;;;;;;;;;;4.90;92.60;;;;;;5014563;28;19905;-43
2022/11/22 11:48:52;;;;;;;;;;;4.90;92.70;;;;;;5003989;28;20243;-43
2022/11/22 11:51:37;;;;;;;;;;;5.00;92.70;;;;;;5009434;28;19976;-42
2022/11/22 11:54:08;;;;;;;;;;;5.00;92.80;;;;;;5014651;28;19910;-43
2022/11/22 11:56:52;;;;;;;;;;;5.10;92.70;;;;;;5008528;28;19969;-42
2022/11/22 11:59:21;;;;;;;;;;;5.10;92.70;;;;;;5010239;28;19909;-42
2022/11/22 12:01:50;;;;;;;;;;;5.10;92.60;;;;;;4994816;28;20389;-42
2022/11/22 12:04:22;;;;;;;;;;;5.20;92.60;;;;;;4995014;28;19906;-42
2022/11/22 12:06:52;;;;;;;;;;;5.20;92.70;;;;;;5011469;28;21884;-42
2022/11/22 12:09:27;;;;;;;;;;;5.30;92.70;;;;;;5012392;28;19917;-42
2022/11/22 12:11:55;;;;;;;;;;;5.40;92.60;;;;;;5012413;28;19910;-43
2022/11/22 12:14:25;;;;;;;;;;;5.40;92.60;;;;;;5013297;28;19915;-42
2022/11/22 12:16:53;;;;;;;;;;;5.40;92.60;;;;;;5010105;28;19914;-44
2022/11/22 12:19:37;;;;;;;;;;;5.50;92.50;;;;;;5008711;28;20008;-42
2022/11/22 12:22:21;;;;;;;;;;;5.60;92.60;;;;;;5004733;28;19944;-42
2022/11/22 12:24:58;;;;;;;;;;;5.70;92.40;;;;;;4996136;28;19940;-42
2022/11/22 12:27:25;;;;;;;;;;;5.60;92.20;;;;;;4996821;28;19914;-42
2022/11/22 12:29:51;;;;;;;;;;;5.70;92.20;;;;;;5001400;28;19924;-44
2022/11/22 12:32:45;;;;;;;;;;;5.70;92.20;;;;;;4994494;28;19914;-44
2022/11/22 12:35:30;;;;;;;;;;;5.70;92.00;;;;;;5002567;28;19944;-43
2022/11/22 12:38:14;;;;;;;;;;;5.80;91.80;;;;;;5013652;28;19955;-42
2022/11/22 12:40:44;;;;;;;;;;;5.80;91.80;;;;;;5000037;28;19909;-45
2022/11/22 12:43:32;;;;;;;;;;;5.80;91.70;;;;;;4993056;28;19905;-43
2022/11/22 12:46:09;;;;;;;;;;;5.80;91.70;;;;;;4993155;28;19921;-43
2022/11/22 12:48:45;;;;;;;;;;;5.90;91.80;;;;;;4999075;28;19940;-42
2022/11/22 12:51:29;;;;;;;;;;;5.90;91.60;;;;;;5008929;28;20297;-42
2022/11/22 12:53:58;;;;;;;;;;;5.90;91.70;;;;;;5001352;28;20314;-43
2022/11/22 12:56:38;;;;;;;;;;;6.00;91.60;;;;;;4994194;28;19906;-42
2022/11/22 12:59:25;;;;;;;;;;;6.00;91.60;;;;;;4994087;28;19942;-43
2022/11/22 13:02:03;;;;;;;;;;;5.90;91.40;;;;;;4990543;28;19924;-42
2022/11/22 13:04:29;;;;;;;;;;;5.90;91.50;;;;;;5012000;28;20301;-42
2022/11/22 13:07:23;;;;;;;;;;;5.80;91.40;;;;;;5013092;28;20020;-46
2022/11/22 13:09:57;;;;;;;;;;;5.70;91.40;;;;;;4991830;28;20290;-43
2022/11/22 13:12:27;;;;;;;;;;;5.70;91.60;;;;;;5004435;28;19994;-44
2022/11/22 13:14:54;;;;;;;;;;;5.70;91.80;;;;;;5013709;28;19920;-43
2022/11/22 13:17:22;;;;;;;;;;;5.80;91.80;;;;;;5013655;28;19913;-45
2022/11/22 13:19:55;;;;;;;;;;;5.80;91.90;;;;;;5004213;28;19983;-44
2022/11/22 13:22:41;;;;;;;;;;;5.80;92.00;;;;;;5012623;28;20354;-42
2022/11/22 13:25:13;;;;;;;;;;;5.90;91.90;;;;;;4992961;28;19981;-43
2022/11/22 13:27:44;;;;;;;;;;;5.90;92.00;;;;;;4993946;28;19937;-43
2022/11/22 13:30:20;;;;;;;;;;;6.00;91.90;;;;;;4993794;28;20363;-42
2022/11/22 13:32:52;;;;;;;;;;;6.00;92.00;;;;;;5003809;28;19971;-43
2022/11/22 13:35:36;;;;;;;;;;;6.10;91.70;;;;;;5014870;28;19953;-44
2022/11/22 13:38:20;;;;;;;;;;;6.10;91.60;;;;;;5009903;28;19913;-44
2022/11/22 13:40:53;;;;;;;;;;;6.00;91.40;;;;;;4997867;28;19906;-43
2022/11/22 13:43:38;;;;;;;;;;;6.00;91.30;;;;;;5012696;28;19945;-43
2022/11/22 13:46:24;;;;;;;;;;;5.90;91.30;;;;;;4997284;28;20333;-43
2022/11/22 13:49:06;;;;;;;;;;;5.90;91.30;;;;;;4997685;28;20401;-43
2022/11/22 13:51:52;;;;;;;;;;;5.90;91.40;;;;;;4996850;28;19964;-42
2022/11/22 13:54:37;;;;;;;;;;;5.90;91.40;;;;;;4997019;28;19999;-42
2022/11/22 13:57:23;;;;;;;;;;;5.80;91.40;;;;;;5006483;28;19955;-42
2022/11/22 14:00:14;;;;;;;;;;;5.70;91.40;;;;;;5006393;28;19906;-42
2022/11/22 14:02:50;;;;;;;;;;;5.70;91.60;;;;;;5008993;28;20376;-42
2022/11/22 14:05:18;;;;;;;;;;;5.60;91.70;;;;;;5008405;28;19912;-44
2022/11/22 14:07:49;;;;;;;;;;;5.50;91.70;;;;;;5006035;28;20005;-44
2022/11/22 14:10:33;;;;;;;;;;;5.50;91.80;;;;;;5016500;28;20378;-42
2022/11/22 14:13:19;;;;;;;;;;;5.40;91.90;;;;;;5016406;28;19913;-42
2022/11/22 14:16:03;;;;;;;;;;;5.40;92.00;;;;;;4999902;28;19910;-44
2022/11/22 14:18:47;;;;;;;;;;;5.40;92.20;;;;;;4997024;28;19960;-43
2022/11/22 14:21:27;;;;;;;;;;;5.40;92.40;;;;;;5014182;28;19909;-43
2022/11/22 14:24:12;;;;;;;;;;;5.40;92.50;;;;;;5014619;28;19909;-42
2022/11/22 14:26:49;;;;;;;;;;;5.40;92.50;;;;;;5016393;28;19909;-43
2022/11/22 14:29:35;;;;;;;;;;;5.40;92.60;;;;;;5005450;28;19909;-42
2022/11/22 14:32:03;;;;;;;;;;;5.50;92.70;;;;;;4995627;28;19917;-43
2022/11/22 14:34:30;;;;;;;;;;;5.50;92.70;;;;;;4999833;28;20355;-43
2022/11/22 14:37:14;;;;;;;;;;;5.50;92.70;;;;;;5016097;28;19909;-42
2022/11/22 14:39:53;;;;;;;;;;;5.50;92.70;;;;;;5016123;28;20326;-42
2022/11/22 14:42:39;;;;;;;;;;;5.60;92.70;;;;;;5015422;28;19909;-42
2022/11/22 14:45:10;;;;;;;;;;;5.50;92.80;;;;;;4997563;28;19913;-42
2022/11/22 14:47:51;;;;;;;;;;;5.60;92.80;;;;;;5004734;28;19918;-43
2022/11/22 14:50:35;;;;;;;;;;;5.60;92.80;;;;;;5015031;28;20302;-43
2022/11/22 14:53:20;;;;;;;;;;;5.60;92.80;;;;;;5015634;28;19909;-43
2022/11/22 14:55:49;;;;;;;;;;;5.60;92.90;;;;;;5008648;28;19909;-43
2022/11/22 14:58:21;;;;;;;;;;;5.60;92.80;;;;;;5011734;28;19914;-43
2022/11/22 15:01:10;;;;;;;;;;;5.60;92.80;;;;;;5008111;28;19909;-43
2022/11/22 15:03:39;;;;;;;;;;;5.70;92.80;;;;;;5013825;28;20298;-44
2022/11/22 15:06:25;;;;;;;;;;;5.60;92.70;;;;;;5015559;28;19912;-42